createdAt,value
2023-03-26T00:00:34.882Z,6.47
2023-03-26T00:05:38.810Z,8.93
2023-03-26T00:10:44.860Z,9.07
2023-03-26T00:15:48.585Z,7.15
2023-03-26T00:20:52.352Z,7.70
2023-03-26T00:25:58.174Z,8.20
2023-03-26T00:31:03.636Z,8.30
2023-03-26T00:36:10.929Z,8.80
2023-03-26T00:41:25.609Z,8.18
2023-03-26T00:46:31.669Z,8.20
2023-03-26T00:51:37.300Z,7.65
2023-03-26T00:56:42.413Z,6.35
2023-03-26T01:01:47.349Z,6.82
2023-03-26T01:06:51.111Z,8.90
2023-03-26T01:11:56.751Z,6.25
2023-03-26T01:17:02.263Z,7.03
2023-03-26T01:22:09.618Z,6.93
2023-03-26T01:27:24.393Z,8.23
2023-03-26T01:32:44.119Z,7.00
2023-03-26T01:37:58.853Z,6.20
2023-03-26T01:43:10.066Z,7.45
2023-03-26T01:48:14.336Z,7.87
2023-03-26T01:53:18.059Z,7.20
2023-03-26T01:58:33.635Z,8.20
2023-03-26T02:03:42.895Z,6.87
2023-03-26T02:08:52.299Z,8.63
2023-03-26T02:13:57.559Z,7.55
2023-03-26T02:19:01.283Z,6.45
2023-03-26T02:24:05.288Z,6.18
2023-03-26T02:29:12.373Z,6.72
2023-03-26T02:34:16.961Z,7.03
2023-03-26T02:39:23.125Z,6.50
2023-03-26T02:44:29.028Z,5.25
2023-03-26T02:49:38.876Z,7.50
2023-03-26T02:54:42.644Z,5.80
2023-03-26T02:59:50.343Z,6.28
2023-03-26T03:05:01.777Z,5.90
2023-03-26T03:10:08.380Z,5.68
2023-03-26T03:15:15.819Z,5.40
2023-03-26T03:20:19.804Z,4.55
2023-03-26T03:25:25.981Z,5.22
2023-03-26T03:30:31.777Z,5.75
2023-03-26T03:35:37.799Z,5.65
2023-03-26T03:40:41.800Z,4.68
2023-03-26T03:45:47.448Z,4.65
2023-03-26T03:50:51.726Z,4.32
2023-03-26T03:55:57.593Z,4.45
2023-03-26T04:01:04.444Z,5.07
2023-03-26T04:06:18.796Z,4.15
2023-03-26T04:11:25.637Z,5.53
2023-03-26T04:16:33.515Z,4.47
2023-03-26T04:21:38.307Z,3.92
2023-03-26T04:26:42.455Z,3.85
2023-03-26T04:31:50.318Z,3.85
2023-03-26T04:36:54.986Z,4.28
2023-03-26T04:42:00.407Z,4.07
2023-03-26T04:47:10.267Z,4.20
2023-03-26T04:52:15.904Z,3.47
2023-03-26T04:57:28.914Z,4.82
2023-03-26T05:02:34.535Z,4.35
2023-03-26T05:07:39.164Z,4.07
2023-03-26T05:12:45.034Z,5.95
2023-03-26T05:17:51.502Z,10.10
2023-03-26T05:22:56.889Z,4.95
2023-03-26T05:28:01.212Z,4.40
2023-03-26T05:33:10.487Z,3.65
2023-03-26T05:38:15.444Z,4.03
2023-03-26T05:43:19.213Z,4.68
2023-03-26T05:48:25.429Z,4.50
2023-03-26T05:53:29.248Z,4.78
2023-03-26T05:58:43.635Z,4.37
2023-03-26T06:04:06.064Z,5.20
2023-03-26T06:09:13.181Z,5.20
2023-03-26T06:14:17.425Z,4.45
2023-03-26T06:19:26.443Z,4.73
2023-03-26T06:24:30.665Z,4.43
2023-03-26T06:29:35.446Z,7.37
2023-03-26T06:34:41.739Z,4.32
2023-03-26T06:39:46.029Z,4.65
2023-03-26T06:44:50.573Z,5.43
2023-03-26T06:49:57.707Z,4.65
2023-03-26T06:55:05.931Z,5.10
2023-03-26T07:00:11.803Z,4.80
2023-03-26T07:05:20.526Z,4.75
2023-03-26T07:10:31.935Z,3.37
2023-03-26T07:15:36.144Z,4.40
2023-03-26T07:20:42.654Z,4.00
2023-03-26T07:25:48.392Z,4.35
2023-03-26T07:31:01.609Z,4.87
2023-03-26T07:36:21.846Z,5.15
2023-03-26T07:41:35.614Z,7.28
2023-03-26T07:46:41.457Z,4.82
2023-03-26T07:51:47.451Z,4.75
2023-03-26T07:56:58.729Z,4.80
2023-03-26T08:02:33.456Z,4.57
2023-03-26T08:07:55.385Z,4.60
2023-03-26T08:13:04.607Z,4.90
2023-03-26T08:18:27.510Z,4.43
2023-03-26T08:23:50.694Z,4.18
2023-03-26T08:29:04.080Z,5.87
2023-03-26T08:34:12.801Z,4.25
2023-03-26T08:39:18.242Z,4.10
2023-03-26T08:45:04.130Z,4.87
2023-03-26T08:50:23.650Z,4.22
2023-03-26T08:55:44.158Z,4.20
2023-03-26T09:01:10.811Z,5.07
2023-03-26T09:06:51.287Z,3.70
2023-03-26T09:12:43.877Z,3.75
2023-03-26T09:18:12.688Z,2.92
2023-03-26T09:23:58.197Z,3.95
2023-03-26T09:29:37.393Z,2.85
2023-03-26T09:35:02.428Z,2.15
2023-03-26T09:40:18.814Z,2.42
2023-03-26T09:45:41.005Z,2.50
2023-03-26T09:51:07.087Z,2.15
2023-03-26T09:56:21.702Z,2.60
2023-03-26T10:01:34.944Z,2.15
2023-03-26T10:06:55.438Z,1.77
2023-03-26T10:12:21.050Z,2.00
2023-03-26T10:17:39.001Z,1.60
2023-03-26T10:22:56.822Z,1.05
2023-03-26T10:28:11.054Z,1.27
2023-03-26T10:33:29.760Z,1.30
2023-03-26T10:38:51.216Z,1.02
2023-03-26T10:44:31.156Z,1.40
2023-03-26T10:49:57.021Z,1.30
2023-03-26T10:55:11.999Z,1.27
2023-03-26T11:00:24.738Z,1.65
2023-03-26T11:05:45.633Z,1.20
2023-03-26T11:10:57.504Z,1.87
2023-03-26T11:16:06.240Z,1.40
2023-03-26T11:21:20.699Z,1.48
2023-03-26T11:26:38.300Z,1.70
2023-03-26T11:36:58.524Z,1.65
2023-03-26T11:42:08.607Z,1.08
2023-03-26T11:47:19.909Z,0.88
2023-03-26T11:52:23.617Z,1.05
2023-03-26T11:57:33.199Z,1.70
2023-03-26T12:02:40.657Z,0.90
2023-03-26T12:07:51.493Z,1.10
2023-03-26T12:12:59.222Z,1.30
2023-03-26T12:18:24.343Z,1.30
2023-03-26T12:23:38.724Z,1.50
2023-03-26T12:28:48.703Z,1.15
2023-03-26T12:34:07.645Z,1.50
2023-03-26T12:40:07.330Z,1.75
2023-03-26T12:44:59.334Z,1.70
2023-03-26T12:50:04.075Z,1.42
2023-03-26T12:55:22.667Z,2.10
2023-03-26T13:00:50.088Z,1.85
2023-03-26T13:06:13.837Z,2.13
2023-03-26T13:11:30.983Z,2.60
2023-03-26T13:16:43.204Z,3.00
2023-03-26T13:22:01.681Z,2.60
2023-03-26T13:27:19.339Z,2.28
2023-03-26T13:32:34.397Z,2.35
2023-03-26T13:37:45.796Z,2.33
2023-03-26T13:43:13.263Z,4.03
2023-03-26T13:48:24.070Z,5.43
2023-03-26T13:53:34.983Z,6.20
2023-03-26T13:58:44.203Z,6.60
2023-03-26T14:03:57.012Z,6.07
2023-03-26T14:09:04.942Z,6.20
2023-03-26T14:14:14.440Z,5.87
2023-03-26T14:19:44.029Z,5.37
2023-03-26T14:25:01.169Z,5.47
2023-03-26T14:30:37.800Z,5.62
2023-03-26T14:35:50.399Z,5.28
2023-03-26T14:40:58.829Z,6.05
2023-03-26T14:46:36.575Z,5.40
2023-03-26T14:51:59.325Z,4.00
2023-03-26T14:57:36.552Z,5.43
2023-03-26T15:03:09.132Z,3.77
2023-03-26T15:13:57.264Z,3.85
2023-03-26T15:19:42.010Z,3.87
2023-03-26T15:25:15.647Z,3.62
2023-03-26T15:30:58.469Z,3.12
2023-03-26T15:36:42.241Z,3.47
2023-03-26T15:41:56.137Z,3.45
2023-03-26T15:47:18.559Z,3.00
2023-03-26T15:52:29.686Z,2.95
2023-03-26T15:57:41.112Z,3.05
2023-03-26T16:02:53.710Z,3.37
2023-03-26T16:08:08.068Z,3.12
2023-03-26T16:13:36.131Z,2.60
2023-03-26T16:18:42.088Z,2.35
2023-03-26T16:23:57.729Z,2.53
2023-03-26T16:29:23.895Z,2.55
2023-03-26T16:34:31.398Z,2.60
2023-03-26T16:39:42.144Z,3.83
2023-03-26T16:44:53.937Z,2.12
2023-03-26T16:50:14.922Z,2.47
2023-03-26T16:55:30.046Z,2.58
2023-03-26T17:00:49.139Z,2.92
2023-03-26T17:06:08.768Z,2.28
2023-03-26T17:11:25.862Z,2.50
2023-03-26T17:16:34.681Z,2.85
2023-03-26T17:21:49.166Z,2.15
2023-03-26T17:27:01.579Z,2.28
2023-03-26T17:32:09.211Z,2.47
2023-03-26T17:37:29.397Z,2.47
2023-03-26T17:42:37.513Z,2.50
2023-03-26T17:47:44.954Z,3.28
2023-03-26T17:52:56.491Z,2.57
2023-03-26T17:58:02.974Z,1.90
2023-03-26T18:03:14.591Z,2.53
2023-03-26T18:08:36.023Z,2.28
2023-03-26T18:14:04.771Z,2.50
2023-03-26T18:19:18.428Z,1.95
2023-03-26T18:24:25.480Z,2.72
2023-03-26T18:29:31.915Z,2.78
2023-03-26T18:34:39.447Z,2.05
2023-03-26T18:39:45.174Z,2.00
2023-03-26T18:44:51.608Z,2.28
2023-03-26T18:49:57.340Z,2.50
2023-03-26T18:55:04.319Z,1.95
2023-03-26T19:00:20.604Z,2.25
2023-03-26T19:05:24.513Z,2.25
2023-03-26T19:10:28.525Z,2.30
2023-03-26T19:15:35.483Z,2.10
2023-03-26T19:20:43.120Z,2.03
2023-03-26T19:25:48.550Z,2.17
2023-03-26T19:30:57.961Z,2.22
2023-03-26T19:36:05.028Z,2.60
2023-03-26T19:41:22.137Z,1.83
2023-03-26T19:46:29.191Z,1.83
2023-03-26T19:51:34.843Z,1.45
2023-03-26T19:56:38.576Z,2.25
2023-03-26T20:01:43.734Z,2.15
2023-03-26T20:06:49.888Z,2.35
2023-03-26T20:11:54.240Z,1.60
2023-03-26T20:16:59.327Z,1.58
2023-03-26T20:22:03.057Z,1.98
2023-03-26T20:27:06.778Z,1.83
2023-03-26T20:32:20.293Z,1.67
2023-03-26T20:37:23.989Z,1.65
2023-03-26T20:42:27.728Z,2.17
2023-03-26T20:47:34.259Z,2.20
2023-03-26T20:52:37.984Z,1.65
2023-03-26T20:57:41.654Z,1.73
2023-03-26T21:02:47.303Z,1.60
2023-03-26T21:07:52.744Z,1.60
2023-03-26T21:12:59.522Z,1.55
2023-03-26T21:18:05.505Z,1.80
2023-03-26T21:23:16.515Z,1.50
2023-03-26T21:28:35.863Z,2.40
2023-03-26T21:33:49.460Z,2.03
2023-03-26T21:38:54.625Z,1.97
2023-03-26T21:44:00.575Z,1.58
2023-03-26T21:49:06.517Z,2.58
2023-03-26T21:54:23.428Z,1.35
2023-03-26T21:59:36.132Z,1.98
2023-03-26T22:04:46.308Z,1.67
2023-03-26T22:09:50.506Z,2.17
2023-03-26T22:14:54.196Z,1.80
2023-03-26T22:20:01.222Z,1.50
2023-03-26T22:25:05.279Z,1.73
2023-03-26T22:30:10.716Z,2.00
2023-03-26T22:35:16.115Z,1.90
2023-03-26T22:40:20.559Z,1.58
2023-03-26T22:45:24.494Z,2.47
2023-03-26T22:50:29.764Z,2.47
2023-03-26T22:55:33.525Z,2.45
2023-03-26T23:00:37.217Z,2.28
2023-03-26T23:05:42.560Z,2.95
2023-03-26T23:10:47.007Z,2.10
2023-03-26T23:15:51.141Z,1.83
2023-03-26T23:20:58.586Z,1.65
2023-03-26T23:26:05.117Z,2.78
2023-03-26T23:31:10.738Z,1.80
2023-03-26T23:36:18.134Z,1.80
2023-03-26T23:41:25.307Z,2.20
2023-03-26T23:46:33.034Z,1.87
2023-03-26T23:51:38.257Z,1.73
2023-03-26T23:56:42.007Z,2.75
